EST,Max TemperatureF,Mean TemperatureF,Min TemperatureF,Max Dew PointF,MeanDew PointF,Min DewpointF,Max Humidity, Mean Humidity, Min Humidity, Max Sea Level PressureIn, Mean Sea Level PressureIn, Min Sea Level PressureIn, Max VisibilityMiles, Mean VisibilityMiles, Min VisibilityMiles, Max Wind SpeedMPH, Mean Wind SpeedMPH, Max Gust SpeedMPH,PrecipitationIn, CloudCover, Events, WindDirDegrees
2012-11-1,,,,,,,,,,,,,,,,,,,,,,
2012-11-2,44,42,41,34,32,30,70,65,57,30.01,29.91,29.84,10,10,10,18,9,34,0.00,8,,286
2012-11-3,44,42,39,32,31,28,70,66,61,30.12,30.08,30.00,10,10,10,14,7,28,0.00,8,,295
2012-11-4,44,40,37,32,30,28,70,64,57,30.13,30.11,30.09,10,10,10,15,7,22,0.00,7,,324
2012-11-5,44,37,30,30,28,27,93,67,53,30.22,30.15,30.10,10,10,7,14,7,22,0.00,5,,319
2012-11-6,46,34,23,32,28,23,100,79,50,30.21,30.14,30.06,10,8,2,9,1,,0.00,0,,127
2012-11-7,42,37,32,30,29,27,93,71,57,30.02,30.00,29.96,10,10,10,6,2,,0.00,0,,6
2012-11-8,48,40,32,32,25,18,87,57,34,30.16,30.08,30.01,10,10,10,15,4,23,0.00,0,,337
2012-11-9,57,44,30,36,33,30,100,71,41,30.28,30.23,30.16,10,10,4,12,3,18,0.00,0,,292
2012-11-10,68,50,32,37,35,32,100,70,30,30.37,30.31,30.25,10,9,4,6,1,,0.00,0,,205
2012-11-11,66,49,32,41,37,32,100,71,37,30.48,30.40,30.35,10,10,4,5,0,,0.00,0,,326
2012-11-12,71,56,41,55,46,37,100,78,53,30.36,30.25,30.12,10,10,5,23,4,39,0.00,3,,185
2012-11-13,46,40,35,37,28,23,87,65,53,30.55,30.44,30.30,10,10,5,13,6,23,0.00,5,,320
2012-11-14,42,35,28,30,28,27,100,73,57,30.60,30.53,30.48,10,10,7,7,2,,0.00,4,,24
2012-11-15,46,36,26,32,30,27,100,84,53,30.46,30.39,30.33,10,9,3,5,1,,0.00,0,,8
2012-11-16,55,42,28,32,31,27,100,73,36,30.51,30.40,30.35,10,9,4,10,2,,0.00,0,,360
2012-11-17,53,40,26,32,30,27,100,76,41,30.66,30.60,30.51,10,10,7,6,1,,0.00,0,,315
2012-11-18,53,40,26,34,31,27,100,79,44,30.67,30.60,30.54,10,9,5,8,1,,0.00,1,,152
2012-11-19,50,42,32,36,34,32,100,83,58,30.55,30.41,30.28,10,8,4,5,0,,0.00,4,,308
2012-11-20,48,40,32,37,35,32,100,88,66,30.27,30.20,30.13,10,7,2,5,0,,0.00,0,,92
2012-11-21,57,42,26,41,33,27,100,82,41,30.28,30.23,30.18,10,6,0,5,0,,0.00,2,,209
2012-11-22,59,42,26,34,31,27,100,79,36,30.32,30.25,30.15,10,9,2,5,0,,0.00,0,,205
2012-11-23,55,42,28,45,32,21,100,80,47,30.14,29.98,29.84,10,9,4,20,2,32,0.00,3,,267
2012-11-24,35,34,32,25,22,18,75,62,52,30.10,30.04,29.98,10,10,10,22,12,32,0.00,6,,271
2012-11-25,44,36,28,25,21,19,80,58,37,30.09,30.02,29.91,10,10,7,12,6,23,0.00,3,,244
2012-11-26,53,40,28,30,27,23,93,63,38,30.22,30.15,30.01,10,10,7,9,2,,0.00,1,,306
2012-11-27,41,38,35,37,33,27,100,83,61,30.31,30.26,30.20,10,8,4,8,2,,0.00,7,,331
2012-11-28,42,38,33,27,25,21,70,60,45,30.40,30.32,30.28,10,10,10,15,6,28,0.00,3,,279
2012-11-29,50,38,26,30,26,23,100,70,37,30.47,30.38,30.33,10,10,5,10,3,17,0.00,0,,250
2012-11-30,50,37,24,32,29,23,100,81,47,30.39,30.34,30.28,10,9,5,5,1,,0.00,0,,342